Alness, United Kingdom
Current Conditions -  °F | °C
As of 7:20 AM on Thursday 18 Dec 2014 (Local Time) from EGPE Reporting Station
Rain Showers Rain Showers  
Wind Chill: 40°   Ceiling: Unl
Heat Index: 46°   Visibility: 6mi
Dew Point: 39°   Wind: 15mph
Humidity: 76%   Direction: 260°W
Pressure: 29.26"   Gusts: NA
Location:  57.7°N, 4.26°W
Report Text: EGPE 180720Z 26013KT 9999 -SHRA FEW035 08/04 Q0991
Loading
Personal Weather Stations






























Interactive Weather Map New forecast layout! Learn more

10-Day Weather Forecast

Advertisements
Track Severe Weather on mobile